createdAt,value
2024-01-27T00:02:00.614Z,99.90
2024-01-27T00:04:28.781Z,99.90
2024-01-27T00:06:56.977Z,99.90
2024-01-27T00:09:25.702Z,99.90
2024-01-27T00:11:54.284Z,99.90
2024-01-27T00:14:22.642Z,99.90
2024-01-27T00:16:50.729Z,99.90
2024-01-27T00:19:22.978Z,99.90
2024-01-27T00:21:51.206Z,99.90
2024-01-27T00:24:19.450Z,99.90
2024-01-27T00:26:48.203Z,99.90
2024-01-27T00:29:16.467Z,99.90
2024-01-27T00:31:59.020Z,99.90
2024-01-27T00:34:28.533Z,99.90
2024-01-27T00:36:56.778Z,99.90
2024-01-27T00:39:24.984Z,99.90
2024-01-27T00:41:55.996Z,99.90
2024-01-27T00:44:28.081Z,99.90
2024-01-27T00:46:57.428Z,99.90
2024-01-27T00:49:25.624Z,99.90
2024-01-27T00:51:55.329Z,99.90
2024-01-27T00:54:23.519Z,99.90
2024-01-27T00:56:51.880Z,99.90
2024-01-27T00:59:19.990Z,99.90
2024-01-27T01:01:48.475Z,99.90
2024-01-27T01:04:16.903Z,99.90
2024-01-27T01:06:45.376Z,99.90
2024-01-27T01:09:14.985Z,99.90
2024-01-27T01:11:43.700Z,99.90
2024-01-27T01:14:12.322Z,99.90
2024-01-27T01:16:41.705Z,99.90
2024-01-27T01:19:10.346Z,99.90
2024-01-27T01:21:38.584Z,99.90
2024-01-27T01:24:06.900Z,99.90
2024-01-27T01:26:36.558Z,99.90
2024-01-27T01:29:06.373Z,99.90
2024-01-27T01:31:34.545Z,99.90
2024-01-27T01:34:02.890Z,99.90
2024-01-27T01:36:31.482Z,99.90
2024-01-27T01:39:01.300Z,99.90
2024-01-27T01:41:29.534Z,99.90
2024-01-27T01:43:59.232Z,99.90
2024-01-27T01:46:27.487Z,99.90
2024-01-27T01:48:56.993Z,99.90
2024-01-27T01:51:25.522Z,99.90
2024-01-27T01:53:56.678Z,99.90
2024-01-27T01:56:25.637Z,99.90
2024-01-27T01:58:56.366Z,99.90
2024-01-27T02:01:26.742Z,99.90
2024-01-27T02:03:55.779Z,99.90
2024-01-27T02:06:24.140Z,99.90
2024-01-27T02:08:52.753Z,99.90
2024-01-27T02:11:21.330Z,99.90
2024-01-27T02:13:50.148Z,99.90
2024-01-27T02:16:23.602Z,99.90
2024-01-27T02:18:54.691Z,99.90
2024-01-27T02:21:23.159Z,99.90
2024-01-27T02:23:53.785Z,99.90
2024-01-27T02:26:23.582Z,99.90
2024-01-27T02:28:52.593Z,99.90
2024-01-27T02:31:20.963Z,99.90
2024-01-27T02:33:49.250Z,99.90
2024-01-27T02:36:17.461Z,99.90
2024-01-27T02:38:45.917Z,99.90
2024-01-27T02:41:16.635Z,99.90
2024-01-27T02:43:46.243Z,99.90
2024-01-27T02:46:16.647Z,99.90
2024-01-27T02:48:45.683Z,99.90
2024-01-27T02:51:14.471Z,99.90
2024-01-27T02:53:43.161Z,99.90
2024-01-27T02:56:11.345Z,99.90
2024-01-27T02:58:39.828Z,99.90
2024-01-27T03:01:09.410Z,99.90
2024-01-27T03:03:37.965Z,99.90
2024-01-27T03:06:06.910Z,99.90
2024-01-27T03:08:35.897Z,99.90
2024-01-27T03:11:05.303Z,99.90
2024-01-27T03:13:33.808Z,99.90
2024-01-27T03:16:02.398Z,99.90
2024-01-27T03:18:32.268Z,99.90
2024-01-27T03:21:00.635Z,99.90
2024-01-27T03:23:29.352Z,99.90
2024-01-27T03:25:57.843Z,99.90
2024-01-27T03:28:26.213Z,99.90
2024-01-27T03:30:54.360Z,99.90
2024-01-27T03:33:24.165Z,99.90
2024-01-27T03:35:54.434Z,99.90
2024-01-27T03:38:22.655Z,99.90
2024-01-27T03:40:51.169Z,99.90
2024-01-27T03:43:19.568Z,99.90
2024-01-27T03:45:50.396Z,99.90
2024-01-27T03:48:18.646Z,99.90
2024-01-27T03:50:46.936Z,99.90
2024-01-27T03:53:15.562Z,99.90
2024-01-27T03:55:46.748Z,99.90
2024-01-27T03:58:15.231Z,99.90
2024-01-27T04:00:45.898Z,99.90
2024-01-27T04:03:14.560Z,99.90
2024-01-27T04:05:43.317Z,99.90
2024-01-27T04:08:11.553Z,99.90
2024-01-27T04:10:41.164Z,99.90
2024-01-27T04:13:09.681Z,99.90
2024-01-27T04:15:40.215Z,99.90
2024-01-27T04:18:10.949Z,99.90
2024-01-27T04:20:39.512Z,99.90
2024-01-27T04:23:07.653Z,99.90
2024-01-27T04:25:37.273Z,99.90
2024-01-27T04:28:07.291Z,99.90
2024-01-27T04:30:40.132Z,99.90
2024-01-27T04:33:09.762Z,99.90
2024-01-27T04:35:38.132Z,99.90
2024-01-27T04:38:06.501Z,99.90
2024-01-27T04:40:36.428Z,99.90
2024-01-27T04:43:06.344Z,99.90
2024-01-27T04:45:37.081Z,99.90
2024-01-27T04:48:06.199Z,99.90
2024-01-27T04:50:34.404Z,99.90
2024-01-27T04:53:03.095Z,99.90
2024-01-27T04:55:31.292Z,99.90
2024-01-27T04:57:59.816Z,99.90
2024-01-27T05:00:29.981Z,99.90
2024-01-27T05:03:00.422Z,99.90
2024-01-27T05:05:28.755Z,99.90
2024-01-27T05:07:56.827Z,99.90
2024-01-27T05:10:26.682Z,99.90
2024-01-27T05:12:56.447Z,99.90
2024-01-27T05:15:24.670Z,99.90
2024-01-27T05:17:54.441Z,99.90
2024-01-27T05:20:22.623Z,99.90
2024-01-27T05:22:50.797Z,99.90
2024-01-27T05:25:19.154Z,99.90
2024-01-27T05:27:47.509Z,99.90
2024-01-27T05:30:16.043Z,99.90
2024-01-27T05:32:46.132Z,99.90
2024-01-27T05:35:16.114Z,99.90
2024-01-27T05:37:44.212Z,99.90
2024-01-27T05:40:12.877Z,99.90
2024-01-27T05:42:43.013Z,99.90
2024-01-27T05:45:12.694Z,99.90
2024-01-27T05:47:42.797Z,99.90
2024-01-27T05:50:12.512Z,99.90
2024-01-27T05:52:42.400Z,99.90
2024-01-27T05:55:14.071Z,99.90
2024-01-27T05:57:42.287Z,99.90
2024-01-27T06:00:11.741Z,99.90
2024-01-27T06:02:39.950Z,99.90
2024-01-27T06:05:10.107Z,99.90
2024-01-27T06:07:42.771Z,99.90
2024-01-27T06:10:11.447Z,99.90
2024-01-27T06:12:40.813Z,99.90
2024-01-27T06:15:11.460Z,99.90
2024-01-27T06:17:40.153Z,99.90
2024-01-27T06:20:10.050Z,99.90
2024-01-27T06:22:38.288Z,99.90
2024-01-27T06:25:11.678Z,99.90
2024-01-27T06:27:42.300Z,99.90
2024-01-27T06:30:12.021Z,99.90
2024-01-27T06:32:40.350Z,99.90
2024-01-27T06:35:09.847Z,99.90
2024-01-27T06:37:38.984Z,99.90
2024-01-27T06:40:10.247Z,99.90
2024-01-27T06:42:38.916Z,99.90
2024-01-27T06:45:08.012Z,99.90
2024-01-27T06:47:36.254Z,99.90
2024-01-27T06:50:05.833Z,99.90
2024-01-27T06:52:34.391Z,99.90
2024-01-27T06:55:03.079Z,99.90
2024-01-27T06:57:32.801Z,99.90
2024-01-27T07:00:01.021Z,99.90
2024-01-27T07:02:29.841Z,99.90
2024-01-27T07:04:58.272Z,99.90
2024-01-27T07:07:28.657Z,99.90
2024-01-27T07:09:58.384Z,99.90
2024-01-27T07:12:27.195Z,99.90
2024-01-27T07:14:58.123Z,99.90
2024-01-27T07:17:27.041Z,99.90
2024-01-27T07:19:55.519Z,99.90
2024-01-27T07:22:26.885Z,99.90
2024-01-27T07:24:55.096Z,99.90
2024-01-27T07:27:24.699Z,99.90
2024-01-27T07:29:53.161Z,99.90
2024-01-27T07:32:23.522Z,99.90
2024-01-27T07:34:51.704Z,99.90
2024-01-27T07:37:20.076Z,99.90
2024-01-27T07:39:50.271Z,99.90
2024-01-27T07:42:18.513Z,99.90
2024-01-27T07:44:51.329Z,99.90
2024-01-27T07:47:21.543Z,99.90
2024-01-27T07:49:52.514Z,99.90
2024-01-27T07:52:23.009Z,99.90
2024-01-27T07:54:51.075Z,99.90
2024-01-27T07:57:19.316Z,99.90
2024-01-27T07:59:48.121Z,99.90
2024-01-27T08:02:24.123Z,99.90
2024-01-27T08:04:54.172Z,99.90
2024-01-27T08:07:24.227Z,99.90
2024-01-27T08:09:56.854Z,99.90
2024-01-27T08:12:25.325Z,99.90
2024-01-27T08:14:55.030Z,99.90
2024-01-27T08:17:25.058Z,99.90
2024-01-27T08:19:54.662Z,99.90
2024-01-27T08:22:23.570Z,99.90
2024-01-27T08:24:51.731Z,99.90
2024-01-27T08:27:20.549Z,99.90
2024-01-27T08:29:49.199Z,99.90
2024-01-27T08:32:27.571Z,99.90
2024-01-27T08:34:58.376Z,99.90
2024-01-27T08:37:26.620Z,99.90
2024-01-27T08:39:55.823Z,99.90
2024-01-27T08:42:28.717Z,99.90
2024-01-27T08:44:58.809Z,99.90
2024-01-27T08:47:27.751Z,99.90
2024-01-27T08:49:58.994Z,99.90
2024-01-27T08:52:27.374Z,99.90
2024-01-27T08:54:56.033Z,99.90
2024-01-27T08:57:27.809Z,99.90
2024-01-27T08:59:56.085Z,99.90
2024-01-27T09:02:24.657Z,99.90
2024-01-27T09:04:53.307Z,99.90
2024-01-27T09:07:53.701Z,99.90
2024-01-27T09:10:21.828Z,99.90
2024-01-27T09:12:50.560Z,99.90
2024-01-27T09:15:21.494Z,99.90
2024-01-27T09:17:50.042Z,99.90
2024-01-27T09:20:18.677Z,99.90
2024-01-27T09:22:50.866Z,99.90
2024-01-27T09:25:19.463Z,99.90
2024-01-27T09:27:48.205Z,99.90
2024-01-27T09:30:20.382Z,99.90
2024-01-27T09:32:49.693Z,99.90
2024-01-27T09:35:18.686Z,99.70
2024-01-27T09:37:48.621Z,98.70
2024-01-27T09:40:20.339Z,98.60
2024-01-27T09:42:54.192Z,98.40
2024-01-27T09:45:23.757Z,98.50
2024-01-27T09:47:54.831Z,97.60
2024-01-27T09:50:24.591Z,97.00
2024-01-27T09:52:54.492Z,96.90
2024-01-27T09:55:23.831Z,96.80
2024-01-27T09:57:53.247Z,96.50
2024-01-27T10:00:24.293Z,95.60
2024-01-27T10:02:56.065Z,94.70
2024-01-27T10:05:25.646Z,94.80
2024-01-27T10:07:58.140Z,95.30
2024-01-27T10:10:27.904Z,95.00
2024-01-27T10:13:04.253Z,94.00
2024-01-27T10:15:32.456Z,94.20
2024-01-27T10:18:08.743Z,93.60
2024-01-27T10:20:40.020Z,94.10
2024-01-27T10:23:17.694Z,93.80
2024-01-27T10:25:47.136Z,93.10
2024-01-27T10:28:26.074Z,92.60
2024-01-27T10:30:56.754Z,92.90
2024-01-27T10:33:25.428Z,92.60
2024-01-27T10:36:01.281Z,93.00
2024-01-27T10:38:38.050Z,93.30
2024-01-27T10:41:13.445Z,92.30
2024-01-27T10:43:43.280Z,92.30
2024-01-27T10:46:12.702Z,91.80
2024-01-27T10:48:42.853Z,92.30
2024-01-27T10:51:15.018Z,92.10
2024-01-27T10:53:56.870Z,92.10
2024-01-27T10:56:26.593Z,92.70
2024-01-27T10:58:56.087Z,92.30
2024-01-27T11:01:28.102Z,91.40
2024-01-27T11:04:01.067Z,91.00
2024-01-27T11:06:31.933Z,91.00
2024-01-27T11:09:05.113Z,90.80
2024-01-27T11:11:34.303Z,91.00
2024-01-27T11:14:04.376Z,90.60
2024-01-27T11:16:32.974Z,89.90
2024-01-27T11:19:01.623Z,89.00
2024-01-27T11:21:31.847Z,88.20
2024-01-27T11:24:01.920Z,88.60
2024-01-27T11:26:34.228Z,90.00
2024-01-27T11:29:10.867Z,90.00
2024-01-27T11:31:43.708Z,89.70
2024-01-27T11:34:17.744Z,90.30
2024-01-27T11:36:46.954Z,90.70
2024-01-27T11:39:31.865Z,91.20
2024-01-27T11:42:12.100Z,91.90
2024-01-27T11:44:43.790Z,92.10
2024-01-27T11:47:17.277Z,92.10
2024-01-27T11:49:46.640Z,91.90
2024-01-27T11:52:15.323Z,92.00
2024-01-27T11:54:45.060Z,91.90
2024-01-27T11:57:13.430Z,91.60
2024-01-27T11:59:42.584Z,91.10
2024-01-27T12:02:12.501Z,91.60
2024-01-27T12:04:41.158Z,91.00
2024-01-27T12:07:10.519Z,91.60
2024-01-27T12:09:39.421Z,91.40
2024-01-27T12:12:11.088Z,92.30
2024-01-27T12:14:45.183Z,92.40
2024-01-27T12:17:16.096Z,92.90
2024-01-27T12:19:49.976Z,93.40
2024-01-27T12:22:25.063Z,93.40
2024-01-27T12:24:53.388Z,93.10
2024-01-27T12:27:24.017Z,93.30
2024-01-27T12:29:52.902Z,93.80
2024-01-27T12:32:21.846Z,94.30
2024-01-27T12:34:52.172Z,94.20
2024-01-27T12:37:23.793Z,94.30
2024-01-27T12:39:52.675Z,94.30
2024-01-27T12:42:24.636Z,94.30
2024-01-27T12:44:53.082Z,95.10
2024-01-27T12:47:24.217Z,95.50
2024-01-27T12:49:53.105Z,95.60
2024-01-27T12:52:26.359Z,95.90
2024-01-27T12:54:54.933Z,96.40
2024-01-27T12:57:27.244Z,96.40
2024-01-27T12:59:55.696Z,96.70
2024-01-27T13:02:32.316Z,96.50
2024-01-27T13:05:04.135Z,96.90
2024-01-27T13:07:35.092Z,97.40
2024-01-27T13:10:08.502Z,97.20
2024-01-27T13:12:41.156Z,97.40
2024-01-27T13:15:09.958Z,97.60
2024-01-27T13:17:45.761Z,97.70
2024-01-27T13:20:20.453Z,97.50
2024-01-27T13:22:50.191Z,97.40
2024-01-27T13:25:18.400Z,97.40
2024-01-27T13:27:48.094Z,97.70
2024-01-27T13:30:18.610Z,97.80
2024-01-27T13:32:50.748Z,97.50
2024-01-27T13:35:19.304Z,97.10
2024-01-27T13:37:49.336Z,97.20
2024-01-27T13:40:18.341Z,97.40
2024-01-27T13:42:51.859Z,97.30
2024-01-27T13:45:20.314Z,97.70
2024-01-27T13:47:48.541Z,97.80
2024-01-27T13:50:17.227Z,97.60
2024-01-27T13:52:47.183Z,97.40
2024-01-27T13:55:16.023Z,97.20
2024-01-27T13:57:44.375Z,97.40
2024-01-27T14:00:17.398Z,97.40
2024-01-27T14:02:47.087Z,97.20
2024-01-27T14:05:15.892Z,97.00
2024-01-27T14:07:44.752Z,97.00
2024-01-27T14:10:13.169Z,97.20
2024-01-27T14:12:45.548Z,97.20
2024-01-27T14:15:20.503Z,97.80
2024-01-27T14:17:50.530Z,98.10
2024-01-27T14:20:19.132Z,98.20
2024-01-27T14:22:50.603Z,98.20
2024-01-27T14:25:18.741Z,98.60
2024-01-27T14:27:52.080Z,98.70
2024-01-27T14:30:21.786Z,98.90
2024-01-27T14:32:52.169Z,98.90
2024-01-27T14:35:22.768Z,99.00
2024-01-27T14:37:59.620Z,99.10
2024-01-27T14:40:30.798Z,98.50
2024-01-27T14:42:59.283Z,98.70
2024-01-27T14:45:32.735Z,98.30
2024-01-27T14:50:33.201Z,98.30
2024-01-27T14:53:03.250Z,98.70
2024-01-27T14:55:34.290Z,98.70
2024-01-27T14:58:04.953Z,98.70
2024-01-27T15:00:42.523Z,98.90
2024-01-27T15:03:16.291Z,98.90
2024-01-27T15:05:45.295Z,99.00
2024-01-27T15:08:14.008Z,99.10
2024-01-27T15:10:44.558Z,99.40
2024-01-27T15:13:15.373Z,99.50
2024-01-27T15:15:45.285Z,99.60
2024-01-27T15:18:14.915Z,99.70
2024-01-27T15:20:45.228Z,99.90
2024-01-27T15:23:13.653Z,99.90
2024-01-27T15:25:41.742Z,99.90
2024-01-27T15:28:10.999Z,99.90
2024-01-27T15:30:39.180Z,99.90
2024-01-27T15:33:10.430Z,99.90
2024-01-27T15:35:41.241Z,99.90
2024-01-27T15:38:09.854Z,99.90
2024-01-27T15:40:38.056Z,99.90
2024-01-27T15:43:06.674Z,99.90
2024-01-27T15:45:35.879Z,99.90
2024-01-27T15:48:04.488Z,99.90
2024-01-27T15:50:34.953Z,99.90
2024-01-27T15:53:04.235Z,99.90
2024-01-27T15:55:34.429Z,99.90
2024-01-27T15:58:02.843Z,99.90
2024-01-27T16:00:31.502Z,99.90
2024-01-27T16:02:59.746Z,99.90
2024-01-27T16:05:27.887Z,99.90
2024-01-27T16:07:58.406Z,99.90
2024-01-27T16:10:26.487Z,99.90
2024-01-27T16:12:54.774Z,99.90
2024-01-27T16:15:22.978Z,99.90
2024-01-27T16:17:51.148Z,99.90
2024-01-27T16:20:19.324Z,99.90
2024-01-27T16:22:48.877Z,99.90
2024-01-27T16:25:18.456Z,99.90
2024-01-27T16:27:47.076Z,99.90
2024-01-27T16:30:17.684Z,99.90
2024-01-27T16:32:46.293Z,99.90
2024-01-27T16:35:14.902Z,99.90
2024-01-27T16:37:43.920Z,99.90
2024-01-27T16:40:12.751Z,99.90
2024-01-27T16:42:43.302Z,99.90
2024-01-27T16:45:12.006Z,99.90
2024-01-27T16:47:42.835Z,99.90
2024-01-27T16:50:11.650Z,99.90
2024-01-27T16:52:39.900Z,99.90
2024-01-27T16:55:08.778Z,99.90
2024-01-27T16:57:38.343Z,99.90
2024-01-27T17:00:11.904Z,99.90
2024-01-27T17:02:40.447Z,99.90
2024-01-27T17:05:08.903Z,99.90
2024-01-27T17:07:37.197Z,99.90
2024-01-27T17:10:06.480Z,99.90
2024-01-27T17:12:35.038Z,99.90
2024-01-27T17:15:05.280Z,99.90
2024-01-27T17:17:35.980Z,99.90
2024-01-27T17:20:05.257Z,99.90
2024-01-27T17:22:33.726Z,99.90
2024-01-27T17:25:05.000Z,99.90
2024-01-27T17:27:33.930Z,99.90
2024-01-27T17:30:05.523Z,99.90
2024-01-27T17:32:36.225Z,99.90
2024-01-27T17:35:05.495Z,99.90
2024-01-27T17:37:36.064Z,99.90
2024-01-27T17:40:07.312Z,99.90
2024-01-27T17:42:39.190Z,99.90
2024-01-27T17:45:14.047Z,99.90
2024-01-27T17:47:46.145Z,99.90
2024-01-27T17:50:14.633Z,99.90
2024-01-27T17:52:45.634Z,99.90
2024-01-27T17:55:14.304Z,99.90
2024-01-27T17:57:44.308Z,99.90
2024-01-27T18:00:21.191Z,99.90
2024-01-27T18:02:54.506Z,99.90
2024-01-27T18:05:26.093Z,99.90
2024-01-27T18:07:58.224Z,99.90
2024-01-27T18:10:26.395Z,99.90
2024-01-27T18:12:55.555Z,99.90
2024-01-27T18:15:24.069Z,99.90
2024-01-27T18:17:55.509Z,99.90
2024-01-27T18:20:23.979Z,99.90
2024-01-27T18:22:52.439Z,99.90
2024-01-27T18:25:22.898Z,99.90
2024-01-27T18:27:53.115Z,99.90
2024-01-27T18:30:25.891Z,99.90
2024-01-27T18:32:55.543Z,99.90
2024-01-27T18:35:33.103Z,99.90
2024-01-27T18:38:09.875Z,99.90
2024-01-27T18:40:40.295Z,99.90
2024-01-27T18:43:08.626Z,99.90
2024-01-27T18:45:40.374Z,99.90
2024-01-27T18:48:14.251Z,99.90
2024-01-27T18:50:44.153Z,99.90
2024-01-27T18:53:13.539Z,99.90
2024-01-27T18:55:46.859Z,99.90
2024-01-27T18:58:16.041Z,99.90
2024-01-27T19:00:45.377Z,99.90
2024-01-27T19:03:15.415Z,99.90
2024-01-27T19:05:44.053Z,99.90
2024-01-27T19:08:12.573Z,99.90
2024-01-27T19:10:46.155Z,99.90
2024-01-27T19:13:17.733Z,99.90
2024-01-27T19:15:46.123Z,99.90
2024-01-27T19:18:16.069Z,99.90
2024-01-27T19:20:44.977Z,99.90
2024-01-27T19:23:13.752Z,99.90
2024-01-27T19:25:42.404Z,99.90
2024-01-27T19:28:11.571Z,99.90
2024-01-27T19:30:45.051Z,99.90
2024-01-27T19:33:14.423Z,99.90
2024-01-27T19:35:44.315Z,99.90
2024-01-27T19:38:12.516Z,99.90
2024-01-27T19:40:41.132Z,99.90
2024-01-27T19:43:14.147Z,99.90
2024-01-27T19:45:45.432Z,99.90
2024-01-27T19:48:16.138Z,99.90
2024-01-27T19:50:49.195Z,99.90
2024-01-27T19:53:18.089Z,99.90
2024-01-27T19:55:46.363Z,99.90
2024-01-27T19:58:14.603Z,99.90
2024-01-27T20:00:43.155Z,99.90
2024-01-27T20:03:11.477Z,99.90
2024-01-27T20:05:41.392Z,99.90
2024-01-27T20:08:11.153Z,99.90
2024-01-27T20:10:39.367Z,99.90
2024-01-27T20:13:08.588Z,99.90
2024-01-27T20:15:36.911Z,99.90
2024-01-27T20:18:07.168Z,99.90
2024-01-27T20:20:36.962Z,99.90
2024-01-27T20:23:05.894Z,99.90
2024-01-27T20:25:35.855Z,99.90
2024-01-27T20:28:04.604Z,99.90
2024-01-27T20:30:34.521Z,99.90
2024-01-27T20:33:09.531Z,99.90
2024-01-27T20:35:49.335Z,99.90
2024-01-27T20:38:18.382Z,99.90
2024-01-27T20:40:57.538Z,99.90
2024-01-27T20:43:26.830Z,99.90
2024-01-27T20:45:55.298Z,99.90
2024-01-27T20:48:24.139Z,99.90
2024-01-27T20:50:54.541Z,99.90
2024-01-27T20:53:23.095Z,99.90
2024-01-27T20:55:54.447Z,99.90
2024-01-27T20:58:24.335Z,99.90
2024-01-27T21:00:56.654Z,99.90
2024-01-27T21:03:25.498Z,99.90
2024-01-27T21:05:56.761Z,99.90
2024-01-27T21:08:24.964Z,99.90
2024-01-27T21:10:57.397Z,99.90
2024-01-27T21:13:25.923Z,99.90
2024-01-27T21:15:54.255Z,99.90
2024-01-27T21:18:22.882Z,99.90
2024-01-27T21:20:52.691Z,99.90
2024-01-27T21:23:21.384Z,99.90
2024-01-27T21:25:50.271Z,99.90
2024-01-27T21:28:26.158Z,99.90
2024-01-27T21:30:55.371Z,99.90
2024-01-27T21:33:23.846Z,99.90
2024-01-27T21:35:52.549Z,99.90
2024-01-27T21:38:22.553Z,99.90
2024-01-27T21:40:51.695Z,99.90
2024-01-27T21:43:23.363Z,99.90
2024-01-27T21:45:52.433Z,99.90
2024-01-27T21:48:23.481Z,99.90
2024-01-27T21:50:51.786Z,99.90
2024-01-27T21:53:23.009Z,99.90
2024-01-27T21:55:58.445Z,99.90
2024-01-27T21:58:33.916Z,99.90
2024-01-27T22:01:17.234Z,99.90
2024-01-27T22:03:46.009Z,99.90
2024-01-27T22:06:15.048Z,99.90
2024-01-27T22:08:43.885Z,99.90
2024-01-27T22:11:16.779Z,99.90
2024-01-27T22:14:08.267Z,99.90
2024-01-27T22:16:37.046Z,99.90
2024-01-27T22:19:06.502Z,99.90
2024-01-27T22:21:34.891Z,99.90
2024-01-27T22:24:03.396Z,99.90
2024-01-27T22:26:31.827Z,99.90
2024-01-27T22:29:00.621Z,99.90
2024-01-27T22:31:33.405Z,99.90
2024-01-27T22:34:02.344Z,99.90
2024-01-27T22:36:30.828Z,99.90
2024-01-27T22:39:01.707Z,99.90
2024-01-27T22:41:30.196Z,99.90
2024-01-27T22:43:59.360Z,99.90
2024-01-27T22:46:29.408Z,99.90
2024-01-27T22:49:00.239Z,99.90
2024-01-27T22:51:31.667Z,99.90
2024-01-27T22:54:00.178Z,99.90
2024-01-27T22:56:28.508Z,99.90
2024-01-27T22:58:57.135Z,99.90
2024-01-27T23:01:25.395Z,99.90
2024-01-27T23:03:57.421Z,99.90
2024-01-27T23:06:25.998Z,99.90
2024-01-27T23:08:54.884Z,99.90
2024-01-27T23:11:23.666Z,99.90
2024-01-27T23:13:51.712Z,99.90
2024-01-27T23:16:20.607Z,99.90
2024-01-27T23:18:49.529Z,99.90
2024-01-27T23:21:20.548Z,99.90
2024-01-27T23:23:49.563Z,99.90
2024-01-27T23:26:18.674Z,99.90
2024-01-27T23:28:46.908Z,99.90
2024-01-27T23:31:15.168Z,99.90
2024-01-27T23:33:44.736Z,99.90
2024-01-27T23:36:13.387Z,99.90
2024-01-27T23:38:43.571Z,99.90
2024-01-27T23:41:11.910Z,99.90
2024-01-27T23:43:40.271Z,99.90
2024-01-27T23:46:09.063Z,99.90
2024-01-27T23:48:39.074Z,99.90
2024-01-27T23:51:10.773Z,99.90
2024-01-27T23:53:39.323Z,99.90
2024-01-27T23:56:10.047Z,99.90
2024-01-27T23:58:38.320Z,99.90
